Time;durP1;ratioP1;P1;durP2;ratioP2;P2;SDS_P1;SDS_P2;PMS_P1;PMS_P2;Temp;Humidity;BMP_temperature;BMP_pressure;BME280_temperature;BME280_humidity;BME280_pressure;Samples;Min_cycle;Max_cycle;Signal;HPM_P1;HPM_P2
2022/08/02 00:01:38;;;;;;;6.90;5.15;;;12.10;99.90;;;;;;4939197;28;94582;-32
2022/08/02 00:04:04;;;;;;;11.93;6.20;;;12.10;99.90;;;;;;4938732;28;94544;-31
2022/08/02 00:06:29;;;;;;;8.02;5.38;;;12.10;99.90;;;;;;4938390;28;93468;-35
2022/08/02 00:08:55;;;;;;;11.63;4.88;;;12.10;99.90;;;;;;4938255;28;94645;-36
2022/08/02 00:11:20;;;;;;;7.32;5.82;;;12.10;99.90;;;;;;4938905;28;93365;-32
2022/08/02 00:13:46;;;;;;;7.68;6.57;;;12.20;99.90;;;;;;4938993;28;93031;-30
2022/08/02 00:16:12;;;;;;;10.40;6.00;;;12.20;99.90;;;;;;4971770;22;94841;-32
2022/08/02 00:18:38;;;;;;;9.55;5.65;;;12.30;99.90;;;;;;4937826;28;95696;-34
2022/08/02 00:21:03;;;;;;;8.38;6.78;;;12.40;99.90;;;;;;4939169;28;94131;-32
2022/08/02 00:23:29;;;;;;;6.63;5.85;;;12.40;99.90;;;;;;4938030;28;93132;-32
2022/08/02 00:25:55;;;;;;;12.05;6.88;;;12.50;99.90;;;;;;4939320;28;94900;-34
2022/08/02 00:28:21;;;;;;;13.82;7.60;;;12.50;99.90;;;;;;4937663;28;94495;-32
2022/08/02 00:30:46;;;;;;;9.50;5.82;;;12.60;99.90;;;;;;4939487;28;92263;-30
2022/08/02 00:33:12;;;;;;;11.27;6.93;;;12.70;99.90;;;;;;4937889;28;92667;-36
2022/08/02 00:35:37;;;;;;;7.75;5.78;;;12.70;99.90;;;;;;4938863;28;94187;-29
2022/08/02 00:38:03;;;;;;;11.00;6.65;;;12.70;99.90;;;;;;4938770;28;94449;-29
2022/08/02 00:40:29;;;;;;;8.57;5.88;;;12.70;99.90;;;;;;4937962;28;93016;-33
2022/08/02 00:43:05;;;;;;;10.18;6.07;;;12.80;99.90;;;;;;4937248;28;94244;-33
2022/08/02 00:45:31;;;;;;;8.55;5.93;;;12.80;99.90;;;;;;4937868;28;94635;-30
2022/08/02 00:47:57;;;;;;;7.82;6.45;;;12.80;99.90;;;;;;4937518;28;94720;-32
2022/08/02 00:50:23;;;;;;;9.95;5.72;;;12.90;99.90;;;;;;4938850;28;93893;-33
2022/08/02 00:52:48;;;;;;;7.88;5.65;;;12.90;99.90;;;;;;4938158;28;93057;-33
2022/08/02 00:55:14;;;;;;;8.50;5.78;;;12.90;99.90;;;;;;4920322;28;94684;-31
2022/08/02 00:57:40;;;;;;;12.60;6.97;;;12.90;99.90;;;;;;4937648;28;94065;-31
2022/08/02 01:00:06;;;;;;;8.98;6.35;;;12.90;99.90;;;;;;4939101;28;91658;-31
2022/08/02 01:02:32;;;;;;;9.45;6.60;;;12.90;99.90;;;;;;4938442;28;94564;-30
2022/08/02 01:04:57;;;;;;;7.38;6.57;;;12.80;99.90;;;;;;4937243;28;94700;-31
2022/08/02 01:07:23;;;;;;;9.65;6.13;;;12.80;99.90;;;;;;4936840;28;94850;-33
2022/08/02 01:09:49;;;;;;;12.52;6.95;;;12.80;99.90;;;;;;4938003;28;92145;-34
2022/08/02 01:12:14;;;;;;;12.02;6.90;;;12.80;99.90;;;;;;4937364;28;93175;-33
2022/08/02 01:14:49;;;;;;;8.60;6.78;;;12.80;99.90;;;;;;4937821;28;96049;-30
2022/08/02 01:17:44;;;;;;;7.10;5.97;;;12.80;99.90;;;;;;4936401;28;94175;-31
2022/08/02 01:20:10;;;;;;;12.65;6.05;;;12.80;99.90;;;;;;4937948;28;93761;-31
2022/08/02 01:23:10;;;;;;;8.38;6.97;;;12.70;99.90;;;;;;4937655;28;93158;-32
2022/08/02 01:25:52;;;;;;;13.68;6.95;;;12.70;99.90;;;;;;4938510;28;94019;-34
2022/08/02 01:28:39;;;;;;;10.30;6.30;;;12.70;99.90;;;;;;4937292;28;94275;-31
2022/08/02 01:31:47;;;;;;;8.17;7.30;;;12.70;99.90;;;;;;4938249;28;92150;-31
2022/08/02 01:34:34;;;;;;;9.45;6.70;;;12.70;99.90;;;;;;4857080;28;94410;-31
2022/08/02 01:37:14;;;;;;;12.02;7.25;;;12.60;99.90;;;;;;4936174;28;94971;-32
2022/08/02 01:39:43;;;;;;;7.22;6.53;;;12.60;99.90;;;;;;4937629;28;94249;-31
2022/08/02 01:42:09;;;;;;;;;;;12.50;99.90;;;;;;4938417;28;92745;-31
2022/08/02 01:44:38;;;;;;;10.00;7.18;;;12.50;99.90;;;;;;4938827;28;93453;-31
2022/08/02 01:47:14;;;;;;;9.32;6.85;;;12.40;99.90;;;;;;4937029;28;95868;-31
2022/08/02 01:49:43;;;;;;;8.13;6.70;;;12.50;99.90;;;;;;4937600;28;94685;-31
2022/08/02 01:52:22;;;;;;;11.68;7.05;;;12.40;99.90;;;;;;4937810;28;91959;-33
2022/08/02 01:55:26;;;;;;;11.70;8.57;;;12.40;99.90;;;;;;4937100;28;93168;-30
2022/08/02 01:57:57;;;;;;;11.27;7.80;;;12.40;99.90;;;;;;4921464;28;94504;-29
2022/08/02 02:00:27;;;;;;;15.43;8.15;;;12.40;99.90;;;;;;4937053;28;94197;-31
2022/08/02 02:02:56;;;;;;;11.68;8.15;;;12.30;99.90;;;;;;4937631;28;94423;-36
2022/08/02 02:05:24;;;;;;;8.30;7.30;;;12.30;99.90;;;;;;4937481;28;92116;-32
2022/08/02 02:07:54;;;;;;;13.55;8.68;;;12.30;99.90;;;;;;4937074;28;94902;-36
2022/08/02 02:10:24;;;;;;;21.10;7.13;;;12.30;99.90;;;;;;4936878;28;94421;-33
2022/08/02 02:12:51;;;;;;;9.50;7.60;;;12.20;99.90;;;;;;4937536;28;94420;-35
2022/08/02 02:15:17;;;;;;;9.73;7.35;;;12.20;99.90;;;;;;4936962;28;93005;-33
2022/08/02 02:17:46;;;;;;;17.40;7.05;;;12.20;99.90;;;;;;4936304;28;93363;-34
2022/08/02 02:20:16;;;;;;;12.15;7.05;;;12.20;99.90;;;;;;4936681;28;93846;-34
2022/08/02 02:22:42;;;;;;;11.82;8.95;;;12.10;99.90;;;;;;4936677;28;94922;-35
2022/08/02 02:25:09;;;;;;;19.35;8.27;;;12.10;99.90;;;;;;4935736;28;94003;-36
2022/08/02 02:27:36;;;;;;;9.85;7.75;;;12.10;99.90;;;;;;4936801;28;95056;-36
2022/08/02 02:30:04;;;;;;;11.27;7.65;;;12.10;99.90;;;;;;4935886;28;94701;-33
2022/08/02 02:32:31;;;;;;;17.33;8.70;;;12.00;99.90;;;;;;4936273;28;94701;-36
2022/08/02 02:34:58;;;;;;;8.93;7.63;;;12.00;99.90;;;;;;4937132;28;93288;-33
2022/08/02 02:37:26;;;;;;;11.32;7.30;;;12.00;99.90;;;;;;4935905;28;94774;-34
2022/08/02 02:39:54;;;;;;;16.75;9.20;;;12.00;99.90;;;;;;4936281;28;94537;-36
2022/08/02 02:42:24;;;;;;;10.80;7.85;;;12.00;99.90;;;;;;4936890;28;91689;-32
2022/08/02 02:44:51;;;;;;;11.70;9.43;;;11.90;99.90;;;;;;4935897;28;93140;-31
2022/08/02 02:47:18;;;;;;;8.27;7.35;;;11.90;99.90;;;;;;4936616;28;94595;-35
2022/08/02 02:49:46;;;;;;;14.00;8.02;;;11.90;99.90;;;;;;4936426;28;95282;-29
2022/08/02 02:52:15;;;;;;;10.65;8.18;;;11.80;99.90;;;;;;4936226;28;93592;-29
2022/08/02 02:54:42;;;;;;;9.48;7.18;;;11.80;99.90;;;;;;4936306;28;93174;-33
2022/08/02 02:57:09;;;;;;;7.73;6.90;;;11.80;99.90;;;;;;4935918;28;95366;-34
2022/08/02 02:59:35;;;;;;;9.85;7.65;;;11.80;99.90;;;;;;4935427;28;94972;-31
2022/08/02 03:02:03;;;;;;;13.43;9.18;;;11.80;99.90;;;;;;4936822;28;94333;-32
2022/08/02 03:04:29;;;;;;;8.47;7.10;;;11.80;99.90;;;;;;4936079;28;94775;-32
2022/08/02 03:06:55;;;;;;;7.88;6.72;;;11.80;99.90;;;;;;4939945;28;94122;-32
2022/08/02 03:09:21;;;;;;;12.52;7.63;;;11.80;99.90;;;;;;4938806;28;95526;-31
2022/08/02 03:11:47;;;;;;;9.80;7.00;;;11.80;99.90;;;;;;4940055;28;93217;-31
2022/08/02 03:14:13;;;;;;;9.88;7.07;;;11.80;99.90;;;;;;4939358;28;93742;-29
2022/08/02 03:16:48;;;;;;;9.02;7.82;;;11.80;99.90;;;;;;4938624;28;95290;-33
2022/08/02 03:19:14;;;;;;;10.32;7.07;;;11.80;99.90;;;;;;4939058;28;94323;-34
2022/08/02 03:21:41;;;;;;;10.85;7.20;;;11.70;99.90;;;;;;4939622;28;92987;-30
2022/08/02 03:24:07;;;;;;;16.40;8.70;;;11.70;99.90;;;;;;4939397;28;94488;-30
2022/08/02 03:26:33;;;;;;;7.28;5.80;;;11.70;99.90;;;;;;4939865;28;94943;-34
2022/08/02 03:28:59;;;;;;;10.52;7.47;;;11.70;99.90;;;;;;4938671;28;96131;-29
2022/08/02 03:31:24;;;;;;;8.00;6.55;;;11.70;99.90;;;;;;4939548;28;92337;-32
2022/08/02 03:33:51;;;;;;;12.40;6.63;;;11.70;99.90;;;;;;4939108;28;92086;-30
2022/08/02 03:36:20;;;;;;;9.88;8.32;;;11.70;99.90;;;;;;4939236;28;94618;-30
2022/08/02 03:38:46;;;;;;;11.13;7.53;;;11.70;99.90;;;;;;4938197;28;95103;-31
2022/08/02 03:41:16;;;;;;;8.65;7.72;;;11.70;99.90;;;;;;4939893;28;93974;-32
2022/08/02 03:43:43;;;;;;;10.30;6.65;;;11.60;99.90;;;;;;4939209;28;92187;-30
2022/08/02 03:46:11;;;;;;;7.63;6.10;;;11.60;99.90;;;;;;4938884;28;94493;-34
2022/08/02 03:48:37;;;;;;;13.23;8.30;;;11.60;99.90;;;;;;4938448;28;94549;-35
2022/08/02 03:51:03;;;;;;;7.53;6.25;;;11.60;99.90;;;;;;4939809;28;93163;-30
2022/08/02 03:53:30;;;;;;;10.05;7.72;;;11.60;99.90;;;;;;4939163;28;93832;-29
2022/08/02 03:55:56;;;;;;;10.27;6.95;;;11.60;99.90;;;;;;4937653;28;93699;-32
2022/08/02 03:58:23;;;;;;;10.05;7.72;;;11.60;99.90;;;;;;4938394;28;94240;-34
2022/08/02 04:00:49;;;;;;;12.25;8.68;;;11.60;99.90;;;;;;4939725;28;92129;-30
2022/08/02 04:03:14;;;;;;;8.88;8.07;;;11.60;99.90;;;;;;4937522;28;93644;-29
2022/08/02 04:05:40;;;;;;;10.85;7.45;;;11.60;99.90;;;;;;4939448;28;94527;-31
2022/08/02 04:08:06;;;;;;;11.55;8.48;;;11.70;99.90;;;;;;4938249;28;94909;-31
2022/08/02 04:11:29;;;;;;;9.55;8.00;;;11.70;99.90;;;;;;4939747;28;92382;-30
2022/08/02 04:13:19;;;;;;;7.80;6.90;;;11.70;99.90;;;;;;4937656;28;93435;-31
2022/08/02 04:15:48;;;;;;;15.35;8.45;;;11.70;99.90;;;;;;4939101;28;94870;-33
2022/08/02 04:18:16;;;;;;;10.13;8.45;;;11.70;99.90;;;;;;4936832;28;94400;-30
2022/08/02 04:20:44;;;;;;;11.40;7.53;;;11.70;99.90;;;;;;4937830;28;93198;-33
2022/08/02 04:23:12;;;;;;;9.20;6.85;;;11.70;99.90;;;;;;4937763;28;93691;-31
2022/08/02 04:25:38;;;;;;;11.20;8.10;;;11.70;99.90;;;;;;4938356;28;94626;-32
2022/08/02 04:28:05;;;;;;;11.98;7.75;;;11.70;99.90;;;;;;4937698;28;94429;-31
2022/08/02 04:30:31;;;;;;;8.98;8.10;;;11.70;99.90;;;;;;4938473;28;94350;-28
2022/08/02 04:32:58;;;;;;;11.93;8.27;;;11.70;99.90;;;;;;4938593;28;92656;-33
2022/08/02 04:35:23;;;;;;;10.50;7.32;;;11.80;99.90;;;;;;4937335;28;96449;-32
2022/08/02 04:37:50;;;;;;;7.93;6.80;;;11.70;99.90;;;;;;4937796;28;95066;-33
2022/08/02 04:40:15;;;;;;;10.48;7.93;;;11.80;99.90;;;;;;4938554;28;93926;-30
2022/08/02 04:42:41;;;;;;;11.52;7.07;;;11.90;99.90;;;;;;4938481;28;94714;-32
2022/08/02 04:45:09;;;;;;;8.88;6.97;;;12.00;99.90;;;;;;4938304;28;93874;-38
2022/08/02 04:47:35;;;;;;;15.85;9.63;;;12.20;99.90;;;;;;4938356;28;94005;-31
2022/08/02 04:50:01;;;;;;;10.32;7.78;;;12.50;99.90;;;;;;4938479;28;94561;-30
2022/08/02 04:52:26;;;;;;;12.32;7.68;;;12.70;99.90;;;;;;4937427;28;95386;-34
2022/08/02 04:54:52;;;;;;;10.55;7.90;;;13.10;99.90;;;;;;4938110;28;96868;-31
2022/08/02 05:00:08;;;;;;;11.73;9.15;;;13.60;99.90;;;;;;4937985;28;94569;-35
2022/08/02 05:02:34;;;;;;;15.02;8.20;;;13.70;99.90;;;;;;4938031;28;94829;-32
2022/08/02 05:05:00;;;;;;;11.13;6.22;;;13.80;99.90;;;;;;4938242;28;94745;-31
2022/08/02 05:07:25;;;;;;;8.23;6.75;;;13.90;99.90;;;;;;4937239;28;94576;-33
2022/08/02 05:09:51;;;;;;;11.95;7.50;;;13.90;99.90;;;;;;4950058;28;93786;-30
2022/08/02 05:12:16;;;;;;;7.93;5.82;;;14.00;99.90;;;;;;4947977;28;93426;-29
2022/08/02 05:14:42;;;;;;;10.80;7.15;;;14.10;99.90;;;;;;4943337;28;93583;-31
2022/08/02 05:17:08;;;;;;;13.38;6.60;;;14.10;99.90;;;;;;4942904;28;94361;-31
2022/08/02 05:19:33;;;;;;;12.68;6.25;;;14.20;99.90;;;;;;4941617;28;93668;-33
2022/08/02 05:21:59;;;;;;;8.50;7.07;;;14.30;99.90;;;;;;4937995;28;94295;-31
2022/08/02 05:24:24;;;;;;;9.93;6.95;;;14.40;99.90;;;;;;4935979;28;94487;-33
2022/08/02 05:26:50;;;;;;;11.32;7.38;;;14.50;99.90;;;;;;4942778;28;93143;-31
2022/08/02 05:29:16;;;;;;;11.23;6.93;;;14.50;99.90;;;;;;4949822;28;92229;-31
2022/08/02 05:31:42;;;;;;;8.77;6.50;;;14.60;99.90;;;;;;4951153;28;92388;-32
2022/08/02 05:34:07;;;;;;;8.20;6.97;;;14.70;99.90;;;;;;4946780;28;94357;-31
2022/08/02 05:36:33;;;;;;;7.22;6.30;;;14.80;99.90;;;;;;4937280;28;94204;-33
2022/08/02 05:38:58;;;;;;;10.43;6.55;;;14.90;99.90;;;;;;4936554;28;93075;-30
2022/08/02 05:41:24;;;;;;;6.43;5.50;;;15.00;99.90;;;;;;4936697;28;93509;-31
2022/08/02 05:43:50;;;;;;;6.85;5.35;;;15.10;99.90;;;;;;4936692;28;95524;-31
2022/08/02 05:46:15;;;;;;;8.07;6.85;;;15.20;99.90;;;;;;4936559;28;94425;-32
2022/08/02 05:48:42;;;;;;;7.50;6.47;;;15.40;99.90;;;;;;4937516;28;93331;-33
2022/08/02 05:51:15;;;;;;;6.38;5.45;;;15.50;99.90;;;;;;4937147;28;94315;-31
2022/08/02 05:53:44;;;;;;;11.40;6.68;;;15.60;99.90;;;;;;4937313;28;94472;-34
2022/08/02 05:56:12;;;;;;;;;;;15.70;99.90;;;;;;4937780;28;94078;-34
2022/08/02 05:59:33;;;;;;;7.07;6.38;;;15.70;99.90;;;;;;4936030;28;93087;-33
2022/08/02 06:02:02;;;;;;;10.73;6.57;;;15.90;99.90;;;;;;4888871;28;93021;-31
2022/08/02 06:04:51;;;;;;;9.70;6.35;;;16.10;99.90;;;;;;4935544;28;94656;-31
2022/08/02 06:07:20;;;;;;;7.15;5.93;;;16.30;99.90;;;;;;4935651;28;94649;-31
2022/08/02 06:09:48;;;;;;;9.90;5.68;;;16.50;99.90;;;;;;4937190;28;93061;-36
2022/08/02 06:12:16;;;;;;;9.52;6.10;;;16.60;99.90;;;;;;4936432;28;94963;-31
2022/08/02 06:14:42;;;;;;;13.95;5.38;;;16.80;99.90;;;;;;4934839;28;94970;-34
2022/08/02 06:17:08;;;;;;;12.18;6.50;;;16.90;99.90;;;;;;4935371;28;94701;-32
2022/08/02 06:19:36;;;;;;;7.63;5.47;;;17.10;99.90;;;;;;4941567;28;93200;-33
2022/08/02 06:22:13;;;;;;;;;;;17.30;99.90;;;;;;4935402;28;93433;-34
2022/08/02 06:24:43;;;;;;;5.80;4.10;;;17.40;99.90;;;;;;4920706;28;94348;-33
2022/08/02 06:27:12;;;;;;;8.93;5.07;;;17.70;99.90;;;;;;4935104;28;94764;-30
2022/08/02 06:29:42;;;;;;;10.27;5.43;;;17.90;99.90;;;;;;4935822;28;92949;-33
2022/08/02 06:32:08;;;;;;;8.40;4.57;;;18.10;99.90;;;;;;4934639;28;95586;-30
2022/08/02 06:34:38;;;;;;;4.70;4.15;;;18.20;99.90;;;;;;4934137;28;94805;-32
2022/08/02 06:37:11;;;;;;;6.05;4.20;;;18.30;99.90;;;;;;4936703;28;94745;-34
2022/08/02 06:39:45;;;;;;;8.68;5.03;;;18.40;99.90;;;;;;4936086;28;92681;-31
2022/08/02 06:42:14;;;;;;;6.03;4.43;;;18.60;99.90;;;;;;4939682;28;92614;-34
2022/08/02 06:44:40;;;;;;;8.57;4.05;;;18.70;99.90;;;;;;4947939;28;94998;-33
2022/08/02 06:47:06;;;;;;;13.27;4.03;;;18.90;99.90;;;;;;4948445;28;94026;-34
2022/08/02 06:49:32;;;;;;;6.78;4.57;;;19.10;99.90;;;;;;4950429;28;92352;-32
2022/08/02 06:51:57;;;;;;;5.95;3.60;;;19.20;99.90;;;;;;4949427;28;92317;-34
2022/08/02 06:54:23;;;;;;;5.80;3.38;;;19.40;99.90;;;;;;4949405;28;94805;-33
2022/08/02 06:56:49;;;;;;;6.30;3.58;;;19.50;99.90;;;;;;4949051;28;95989;-31
2022/08/02 06:59:14;;;;;;;8.60;3.47;;;19.70;99.90;;;;;;4946569;28;93079;-32
2022/08/02 07:01:40;;;;;;;7.45;4.00;;;19.90;99.90;;;;;;4939032;28;93802;-31
2022/08/02 07:04:06;;;;;;;5.65;4.15;;;20.00;99.90;;;;;;4941316;28;95245;-32
2022/08/02 07:06:33;;;;;;;5.18;4.25;;;20.10;99.90;;;;;;4940438;28;93757;-34
2022/08/02 07:08:58;;;;;;;9.80;3.47;;;20.20;99.90;;;;;;4939718;28;93192;-33
2022/08/02 07:11:24;;;;;;;8.85;3.00;;;20.30;99.90;;;;;;4939424;28;93658;-31
2022/08/02 07:13:50;;;;;;;8.70;3.10;;;20.40;99.90;;;;;;4943324;28;94085;-34
2022/08/02 07:16:15;;;;;;;4.68;2.85;;;20.50;99.90;;;;;;4939137;28;93541;-32
2022/08/02 07:18:41;;;;;;;6.55;3.17;;;20.60;99.90;;;;;;4939597;28;93387;-31
2022/08/02 07:21:06;;;;;;;5.30;3.15;;;20.80;99.90;;;;;;4940378;28;94441;-35
2022/08/02 07:23:32;;;;;;;7.50;3.75;;;20.90;99.90;;;;;;4939394;28;95138;-33
2022/08/02 07:25:59;;;;;;;3.10;2.80;;;21.10;99.90;;;;;;4946412;28;93382;-35
2022/08/02 07:28:24;;;;;;;2.75;2.45;;;21.40;99.90;;;;;;4939586;28;93463;-33
2022/08/02 07:30:50;;;;;;;3.28;2.58;;;21.60;99.90;;;;;;4938030;28;94868;-33
2022/08/02 07:33:16;;;;;;;4.32;2.90;;;21.80;99.90;;;;;;4940677;28;94694;-34
2022/08/02 07:35:41;;;;;;;4.45;2.78;;;22.10;99.90;;;;;;4944650;28;94534;-34
2022/08/02 07:38:07;;;;;;;3.80;2.38;;;22.30;99.90;;;;;;4939944;28;92959;-34
2022/08/02 07:40:33;;;;;;;11.60;3.55;;;22.50;99.90;;;;;;4938944;28;93980;-33
2022/08/02 07:42:59;;;;;;;4.10;2.85;;;22.50;99.90;;;;;;4939996;28;94760;-34
2022/08/02 07:45:26;;;;;;;3.47;2.10;;;22.40;99.90;;;;;;4939351;28;94600;-33
2022/08/02 07:47:51;;;;;;;3.47;2.60;;;22.30;99.90;;;;;;4941272;28;93576;-32
2022/08/02 07:50:19;;;;;;;4.28;2.95;;;22.10;99.90;;;;;;4939232;28;92707;-31
2022/08/02 07:52:45;;;;;;;3.83;2.10;;;22.10;99.90;;;;;;4939381;28;93374;-34
2022/08/02 07:55:12;;;;;;;2.75;2.55;;;22.30;99.90;;;;;;4938515;28;94585;-30
2022/08/02 07:57:39;;;;;;;3.55;2.30;;;22.30;99.90;;;;;;4945683;28;93113;-33
2022/08/02 08:00:07;;;;;;;7.23;3.27;;;22.40;99.90;;;;;;4938947;28;93508;-32
2022/08/02 08:02:32;;;;;;;3.17;2.55;;;22.60;99.90;;;;;;4940149;28;94803;-32
2022/08/02 08:04:58;;;;;;;2.63;2.33;;;22.70;99.90;;;;;;4938368;28;92971;-36
2022/08/02 08:07:24;;;;;;;4.53;2.13;;;23.00;99.90;;;;;;4938565;28;94843;-35
2022/08/02 08:09:50;;;;;;;4.40;2.47;;;23.00;99.90;;;;;;4937971;28;93681;-32
2022/08/02 08:12:16;;;;;;;3.08;2.03;;;23.10;99.90;;;;;;4939484;28;95036;-33
2022/08/02 08:14:42;;;;;;;8.40;2.08;;;23.10;99.90;;;;;;4944746;28;94342;-32
2022/08/02 08:17:07;;;;;;;5.93;1.98;;;23.10;99.90;;;;;;4938388;28;93006;-35
2022/08/02 08:19:34;;;;;;;2.38;1.65;;;23.20;99.90;;;;;;4940339;28;93172;-35
2022/08/02 08:21:59;;;;;;;6.00;1.95;;;23.20;99.90;;;;;;4936427;28;94685;-33
2022/08/02 08:24:26;;;;;;;3.00;1.85;;;23.30;99.90;;;;;;4935428;28;94734;-31
2022/08/02 08:26:52;;;;;;;6.15;2.00;;;23.30;99.90;;;;;;4937196;28;92350;-31
2022/08/02 08:29:17;;;;;;;3.75;1.77;;;23.40;99.90;;;;;;4938972;28;94211;-32
2022/08/02 08:31:43;;;;;;;3.22;1.60;;;23.60;99.90;;;;;;4940725;28;95215;-34
2022/08/02 08:34:09;;;;;;;4.75;2.05;;;23.70;99.90;;;;;;4941692;28;94809;-32
2022/08/02 08:36:35;;;;;;;2.25;1.88;;;23.70;99.90;;;;;;4943006;28;92235;-32
2022/08/02 08:39:00;;;;;;;3.15;1.58;;;23.70;99.90;;;;;;4944518;28;93105;-35
2022/08/02 08:41:26;;;;;;;4.07;1.90;;;23.90;99.90;;;;;;4941182;28;94734;-31
2022/08/02 08:43:52;;;;;;;3.63;2.00;;;24.10;99.90;;;;;;4941949;28;94531;-32
2022/08/02 08:46:25;;;;;;;2.88;2.30;;;24.20;99.90;;;;;;4945036;28;93139;-30
2022/08/02 08:48:57;;;;;;;2.50;1.92;;;24.40;99.90;;;;;;4941518;28;93031;-33
2022/08/02 08:51:26;;;;;;;6.13;2.15;;;24.50;99.90;;;;;;4940571;28;96527;-32
2022/08/02 08:53:54;;;;;;;2.25;1.63;;;24.50;99.50;;;;;;4942159;28;93366;-34
2022/08/02 08:56:20;;;;;;;3.60;2.00;;;24.50;97.40;;;;;;4941202;28;93358;-32
2022/08/02 08:58:46;;;;;;;4.43;2.13;;;24.40;94.20;;;;;;4937554;28;94277;-31
2022/08/02 09:01:12;;;;;;;2.50;1.75;;;24.30;94.40;;;;;;4936701;28;94818;-32
2022/08/02 09:03:38;;;;;;;2.42;1.80;;;24.30;98.30;;;;;;4937965;28;94581;-34
2022/08/02 09:06:04;;;;;;;3.47;1.63;;;24.40;99.20;;;;;;4939846;28;93547;-33
2022/08/02 09:08:30;;;;;;;2.15;1.95;;;24.60;99.10;;;;;;4936304;28;92972;-33
2022/08/02 09:10:56;;;;;;;5.20;2.55;;;24.70;98.60;;;;;;4937008;28;93423;-31
2022/08/02 09:13:30;;;;;;;2.17;1.65;;;24.80;95.80;;;;;;4935933;28;94465;-33
2022/08/02 09:16:04;;;;;;;3.83;1.65;;;24.90;92.80;;;;;;4936520;28;93100;-34
2022/08/02 09:18:34;;;;;;;4.68;1.95;;;24.90;93.90;;;;;;4941422;28;94149;-32
2022/08/02 09:21:02;;;;;;;4.68;2.13;;;24.90;93.40;;;;;;4936742;28;95327;-31
2022/08/02 09:23:37;;;;;;;2.50;1.80;;;24.90;94.30;;;;;;4935449;28;94569;-32
2022/08/02 09:26:15;;;;;;;1.88;1.70;;;25.10;92.00;;;;;;4937105;28;94349;-34
2022/08/02 09:28:45;;;;;;;3.15;2.22;;;25.20;97.00;;;;;;4943221;28;93818;-32
2022/08/02 09:31:11;;;;;;;9.20;2.15;;;25.40;95.10;;;;;;4936863;28;94529;-33
2022/08/02 09:33:39;;;;;;;3.00;1.90;;;25.60;91.30;;;;;;4934916;28;94747;-32
2022/08/02 09:36:07;;;;;;;4.00;1.92;;;25.70;91.80;;;;;;4940452;28;93450;-32
2022/08/02 09:38:35;;;;;;;1.83;1.73;;;25.80;89.10;;;;;;4949073;28;92993;-31
2022/08/02 09:41:01;;;;;;;3.03;2.13;;;25.90;89.30;;;;;;4949243;28;93983;-31
2022/08/02 09:43:40;;;;;;;2.13;2.03;;;26.00;86.20;;;;;;4948842;28;93910;-31
2022/08/02 09:46:16;;;;;;;11.82;2.25;;;26.10;76.80;;;;;;4949520;28;93216;-32
2022/08/02 09:49:12;;;;;;;2.42;1.88;;;26.10;78.10;;;;;;4944082;28;94085;-33
2022/08/02 09:51:47;;;;;;;4.65;2.15;;;26.20;71.70;;;;;;4938643;28;94188;-34
2022/08/02 09:54:18;;;;;;;3.70;2.15;;;26.10;68.80;;;;;;4947341;28;95239;-32
2022/08/02 09:56:50;;;;;;;3.17;1.85;;;26.00;71.10;;;;;;4947290;28;92152;-30
2022/08/02 09:59:17;;;;;;;3.95;2.53;;;26.00;74.20;;;;;;4947598;28;92941;-33
2022/08/02 10:01:45;;;;;;;2.85;1.75;;;26.10;75.40;;;;;;4947194;28;94723;-32
2022/08/02 10:04:13;;;;;;;10.32;2.42;;;26.10;74.10;;;;;;4944545;28;93383;-32
2022/08/02 10:06:40;;;;;;;3.40;2.25;;;25.90;73.00;;;;;;4940088;28;92084;-34
2022/08/02 10:09:07;;;;;;;2.97;2.40;;;25.80;75.00;;;;;;4940625;28;94370;-34
2022/08/02 10:11:34;;;;;;;4.90;2.37;;;25.70;76.40;;;;;;4936438;28;94487;-32
2022/08/02 10:14:03;;;;;;;5.72;2.70;;;25.70;83.70;;;;;;4936153;28;95620;-32
2022/08/02 10:16:29;;;;;;;4.88;2.63;;;25.80;82.00;;;;;;4937878;28;92731;-33
2022/08/02 10:18:56;;;;;;;2.47;2.28;;;25.90;80.80;;;;;;4938528;28;94636;-31
2022/08/02 10:21:30;;;;;;;4.53;3.15;;;25.90;83.20;;;;;;4938176;28;94734;-34
2022/08/02 10:24:09;;;;;;;3.65;2.88;;;25.90;82.70;;;;;;4938180;28;94448;-34
2022/08/02 10:26:37;;;;;;;5.55;3.05;;;25.90;90.50;;;;;;4939599;28;92290;-33
2022/08/02 10:29:03;;;;;;;3.88;3.30;;;26.00;91.00;;;;;;4940392;28;94556;-31
2022/08/02 10:31:37;;;;;;;6.85;3.17;;;26.10;90.60;;;;;;4939666;28;93927;-33
2022/08/02 10:34:08;;;;;;;3.25;2.97;;;26.10;87.40;;;;;;4938794;28;93495;-34
2022/08/02 10:36:36;;;;;;;5.15;3.28;;;26.00;91.00;;;;;;4938650;28;93993;-31
2022/08/02 10:39:02;;;;;;;11.93;3.25;;;25.90;93.90;;;;;;4937933;28;94466;-34
2022/08/02 10:41:41;;;;;;;5.28;3.13;;;25.90;96.90;;;;;;4948632;28;93467;-33
2022/08/02 10:44:07;;;;;;;13.40;3.35;;;25.90;97.10;;;;;;4937313;28;94727;-33
2022/08/02 10:46:37;;;;;;;3.42;3.10;;;26.00;97.00;;;;;;4939109;28;93264;-32
2022/08/02 10:49:12;;;;;;;4.70;4.00;;;26.00;98.40;;;;;;4940272;28;94754;-33
2022/08/02 10:51:57;;;;;;;4.68;3.03;;;26.10;99.90;;;;;;4937550;28;94769;-34
2022/08/02 10:54:30;;;;;;;4.18;3.88;;;26.20;99.90;;;;;;4937221;28;95191;-32
2022/08/02 10:56:57;;;;;;;3.63;3.35;;;26.30;99.90;;;;;;4937495;28;93998;-34
2022/08/02 10:59:28;;;;;;;7.97;4.57;;;26.40;99.90;;;;;;4938129;28;93002;-32
2022/08/02 11:02:01;;;;;;;4.25;3.95;;;26.40;99.90;;;;;;4937516;28;94915;-31
2022/08/02 11:04:36;;;;;;;4.68;3.92;;;26.40;99.90;;;;;;4936237;28;94357;-35
2022/08/02 11:07:17;;;;;;;9.35;4.25;;;26.40;99.90;;;;;;4936132;28;92288;-34
2022/08/02 11:09:45;;;;;;;5.82;4.47;;;26.50;99.90;;;;;;4934701;28;93119;-30
2022/08/02 11:12:21;;;;;;;5.65;4.90;;;26.60;99.90;;;;;;4941460;28;94920;-30
2022/08/02 11:15:03;;;;;;;5.15;4.65;;;26.70;99.90;;;;;;4947030;28;94534;-33
2022/08/02 11:17:52;;;;;;;4.82;3.50;;;26.70;99.90;;;;;;4945984;28;92782;-32
2022/08/02 11:20:19;;;;;;;6.15;3.83;;;26.60;99.90;;;;;;4940547;28;93530;-34
2022/08/02 11:22:47;;;;;;;4.18;3.85;;;26.70;99.90;;;;;;4947118;28;93955;-32
2022/08/02 11:25:21;;;;;;;4.95;3.78;;;26.80;96.70;;;;;;4950080;28;92775;-31
2022/08/02 11:27:54;;;;;;;4.15;3.80;;;26.80;99.90;;;;;;4952797;28;92495;-33
2022/08/02 11:30:20;;;;;;;5.20;3.70;;;26.80;99.90;;;;;;4949214;28;93830;-32
2022/08/02 11:32:47;;;;;;;5.88;4.05;;;26.90;99.80;;;;;;4952770;28;94646;-33
2022/08/02 11:35:13;;;;;;;4.60;3.93;;;26.90;99.90;;;;;;4950177;28;94171;-32
2022/08/02 11:37:41;;;;;;;7.35;4.53;;;26.90;99.90;;;;;;4951377;28;93055;-33
2022/08/02 11:40:08;;;;;;;;;;;26.90;99.90;;;;;;4953443;28;94724;-35
2022/08/02 11:42:39;;;;;;;5.63;4.10;;;27.00;99.90;;;;;;4954540;28;95851;-32
2022/08/02 11:45:07;;;;;;;4.70;4.10;;;27.00;99.90;;;;;;4953092;28;94146;-33
2022/08/02 11:47:33;;;;;;;4.13;3.83;;;27.10;99.90;;;;;;4953940;28;91419;-31
2022/08/02 11:50:06;;;;;;;7.43;3.63;;;27.10;99.90;;;;;;4952859;28;92319;-31
2022/08/02 11:52:33;;;;;;;6.13;3.47;;;27.10;97.90;;;;;;4952411;28;95227;-32
2022/08/02 11:55:00;;;;;;;3.25;3.05;;;27.00;95.60;;;;;;4952391;28;94493;-32
2022/08/02 11:57:25;;;;;;;3.95;3.55;;;27.10;94.90;;;;;;4953198;28;92448;-33
2022/08/02 11:59:54;;;;;;;7.20;3.95;;;27.00;92.10;;;;;;4953239;28;92152;-31
2022/08/02 12:02:24;;;;;;;7.60;3.25;;;27.00;93.60;;;;;;4952593;28;93742;-33
2022/08/02 12:05:05;;;;;;;8.10;3.50;;;27.00;95.90;;;;;;4951237;28;94493;-33
2022/08/02 12:07:36;;;;;;;8.38;2.78;;;27.10;91.90;;;;;;4951833;28;92720;-32
2022/08/02 12:10:09;;;;;;;4.07;3.03;;;27.10;91.90;;;;;;4949701;28;93192;-34
2022/08/02 12:12:56;;;;;;;9.45;3.42;;;27.20;90.60;;;;;;4951406;28;94168;-34
2022/08/02 12:15:36;;;;;;;5.60;3.07;;;27.20;91.10;;;;;;4949308;28;93735;-31
2022/08/02 12:20:58;;;;;;;3.50;3.15;;;27.20;95.20;;;;;;4952378;28;93900;-34
2022/08/02 12:23:24;;;;;;;6.03;2.72;;;27.00;93.00;;;;;;4951915;28;94373;-32
2022/08/02 12:26:05;;;;;;;3.72;3.05;;;26.90;93.90;;;;;;4949773;28;94469;-31
2022/08/02 12:28:34;;;;;;;2.50;2.30;;;26.80;96.30;;;;;;4952578;28;92101;-32
2022/08/02 12:31:00;;;;;;;2.47;2.28;;;26.80;93.70;;;;;;4952353;28;92704;-32
2022/08/02 12:33:48;;;;;;;6.00;3.42;;;26.80;91.60;;;;;;4949302;28;94863;-34
2022/08/02 12:36:28;;;;;;;2.00;1.80;;;26.70;91.40;;;;;;4946701;28;93900;-33
2022/08/02 12:38:59;;;;;;;2.25;2.05;;;26.80;85.00;;;;;;4949417;28;91385;-31
2022/08/02 12:41:28;;;;;;;2.65;1.88;;;26.90;85.50;;;;;;4950033;28;92842;-33
2022/08/02 12:43:54;;;;;;;3.00;2.08;;;26.90;84.20;;;;;;4950764;28;95218;-30
2022/08/02 12:46:22;;;;;;;2.25;2.15;;;26.80;85.00;;;;;;4949589;28;94844;-33
2022/08/02 12:48:48;;;;;;;3.20;2.17;;;26.80;87.40;;;;;;4948218;28;92686;-31
2022/08/02 12:51:37;;;;;;;2.72;1.95;;;26.70;88.50;;;;;;4948654;28;93032;-33
2022/08/02 12:54:21;;;;;;;3.13;2.15;;;26.70;92.30;;;;;;4948823;28;95095;-32
2022/08/02 12:56:47;;;;;;;2.72;2.53;;;26.80;95.70;;;;;;4948307;28;94588;-30
2022/08/02 12:59:37;;;;;;;3.17;2.70;;;26.80;94.30;;;;;;5051051;27;88914;-41
2022/08/02 13:02:05;;;;;;;3.88;3.10;;;26.80;95.50;;;;;;5048647;27;87727;-34